To NAV CANADA Home Page Login to a new session Search on AWWS site Feedback and Comments Disclaimer Vers la page française équivalente Tips FAQ What's new on the site To the Forecasts and Observations / NOTAM section To "File a Flight Plan" website Publications and other links Update of the User's profile FIC Telephone Numbers My Weather Data Folder Route Weather Data Regional Weather Data Local Weather Data To the Forecasts and Observations / NOTAM section
Request Generated 03/30/2015 at 17:27:28 UTC . Weather information available at that time is displayed.

METAR/TAF

EDMONTON/EDMONTON INTL/AB    

METAR CYEG 301700Z 27008KT 15SM SCT090 BKN150 BKN240 09/M03 A2996 RMK
AC3AC2CI2 SLP166=
METAR CYEG 301600Z 23007KT 15SM FEW110 FEW140 BKN240 06/M02 A2996 RMK
AC1AC2CI4 LWR AC TR CONTRAILS SLP165=
METAR CYEG 301500Z 21007KT 15SM FEW080 FEW110 FEW240 03/M02 A2995 RMK
AC1AC1CI1 CI TR LWR AC TR SLP167=

TAF CYEG 301438Z 3015/3112 22005KT P6SM FEW100 SCT220
BECMG 3015/3017 28008KT
FM301800 28008KT P6SM SCT080 TEMPO 3020/3024 BKN060
BECMG 3021/3023 14006KT
FM310100 13008KT P6SM SCT090 BKN200
BECMG 3104/3106 13012KT
BECMG 3109/3111 15006KT
RMK NXT FCST BY 301800Z=
Your time UTC time
Weather data provided by Environment Canada and NAV CANADA